Time;durP1;ratioP1;P1;durP2;ratioP2;P2;SDS_P1;SDS_P2;PMS_P1;PMS_P2;Temp;Humidity;BMP_temperature;BMP_pressure;BME280_temperature;BME280_humidity;BME280_pressure;Samples;Min_cycle;Max_cycle;Signal;HPM_P1;HPM_P2
2022/02/22 00:00:33;;;;;;;3.70;1.70;;;5.80;99.90;;;;;;4995533;28;20213;-66
2022/02/22 00:02:59;;;;;;;2.47;1.03;;;5.80;99.90;;;;;;4995764;28;20183;-67
2022/02/22 00:05:24;;;;;;;3.90;1.40;;;5.80;99.90;;;;;;4995136;28;20210;-67
2022/02/22 00:07:50;;;;;;;6.13;2.10;;;5.80;99.90;;;;;;4994865;28;20183;-66
2022/02/22 00:10:16;;;;;;;3.37;1.70;;;5.80;99.90;;;;;;4999214;28;20179;-67
2022/02/22 00:12:43;;;;;;;4.70;1.40;;;5.80;99.90;;;;;;4995318;28;20187;-66
2022/02/22 00:15:09;;;;;;;8.10;2.00;;;5.80;99.90;;;;;;4995227;28;20192;-67
2022/02/22 00:17:39;;;;;;;5.47;1.63;;;5.90;99.90;;;;;;4995304;28;20445;-67
2022/02/22 00:20:06;;;;;;;2.60;1.17;;;5.90;99.90;;;;;;4995093;28;20446;-66
2022/02/22 00:22:31;;;;;;;1.70;1.60;;;5.90;99.90;;;;;;4995139;28;20450;-66
2022/02/22 00:24:57;;;;;;;5.63;2.13;;;5.90;99.90;;;;;;4987907;28;20453;-66
2022/02/22 00:27:22;;;;;;;6.83;1.97;;;5.80;99.90;;;;;;4995057;28;20191;-66
2022/02/22 00:29:48;;;;;;;3.50;1.83;;;5.80;99.90;;;;;;4995104;28;20183;-66
2022/02/22 00:32:14;;;;;;;4.63;1.93;;;5.70;99.90;;;;;;4995825;28;20701;-67
2022/02/22 00:34:39;;;;;;;5.70;1.80;;;5.70;99.90;;;;;;4995516;28;20221;-67
2022/02/22 00:37:05;;;;;;;7.37;1.40;;;5.50;99.90;;;;;;4997798;28;20234;-67
2022/02/22 00:39:31;;;;;;;4.77;1.90;;;5.50;99.90;;;;;;4995057;28;20617;-67
2022/02/22 00:41:56;;;;;;;6.80;1.60;;;5.40;99.90;;;;;;4994904;28;20194;-66
2022/02/22 00:44:23;;;;;;;7.40;2.40;;;5.40;99.90;;;;;;4994679;28;20450;-67
2022/02/22 00:46:50;;;;;;;5.23;1.47;;;5.40;99.90;;;;;;4993585;28;20199;-67
2022/02/22 00:49:15;;;;;;;2.00;1.77;;;5.50;99.90;;;;;;4999815;28;20983;-67
2022/02/22 00:51:41;;;;;;;6.37;2.97;;;5.50;99.90;;;;;;4994874;28;20522;-67
2022/02/22 00:54:06;;;;;;;5.50;1.10;;;5.60;99.90;;;;;;4994661;28;20187;-67
2022/02/22 00:56:32;;;;;;;6.50;2.40;;;5.60;99.90;;;;;;4994191;28;20661;-67
2022/02/22 00:58:57;;;;;;;6.27;2.37;;;5.70;99.90;;;;;;4994624;28;20175;-66
2022/02/22 01:01:23;;;;;;;7.47;2.13;;;5.70;99.90;;;;;;4994653;28;20326;-67
2022/02/22 01:03:49;;;;;;;5.97;1.53;;;5.70;99.90;;;;;;4993899;28;20210;-67
2022/02/22 01:06:14;;;;;;;3.80;1.90;;;5.70;99.90;;;;;;4994071;28;20673;-67
2022/02/22 01:08:40;;;;;;;4.50;1.53;;;5.70;99.90;;;;;;4994312;28;20175;-66
2022/02/22 01:11:06;;;;;;;10.47;2.33;;;5.70;99.90;;;;;;4994591;28;20708;-67
2022/02/22 01:13:31;;;;;;;3.63;1.20;;;5.60;99.90;;;;;;4994135;28;20253;-67
2022/02/22 01:15:57;;;;;;;4.53;1.60;;;5.60;99.90;;;;;;4993880;28;20185;-66
2022/02/22 01:18:22;;;;;;;4.27;1.33;;;5.60;99.90;;;;;;4994140;28;20175;-66
2022/02/22 01:20:49;;;;;;;7.33;1.87;;;5.60;99.90;;;;;;5000139;28;20228;-66
2022/02/22 01:23:14;;;;;;;5.00;1.50;;;5.60;99.90;;;;;;4994722;28;20180;-66
2022/02/22 01:25:40;;;;;;;2.33;1.80;;;5.60;99.90;;;;;;4999015;28;20456;-66
2022/02/22 01:28:05;;;;;;;3.10;1.37;;;5.60;99.90;;;;;;5010053;28;20171;-66
2022/02/22 01:30:31;;;;;;;4.37;3.00;;;5.50;99.90;;;;;;5008183;28;20183;-67
2022/02/22 01:32:57;;;;;;;5.20;1.77;;;5.50;99.90;;;;;;4995088;28;20207;-66
2022/02/22 01:35:22;;;;;;;4.20;1.23;;;5.60;99.90;;;;;;4993663;28;20741;-66
2022/02/22 01:37:48;;;;;;;5.87;2.20;;;5.60;99.90;;;;;;4994643;28;20619;-67
2022/02/22 01:40:14;;;;;;;3.90;2.07;;;5.50;99.90;;;;;;4993976;28;20180;-67
2022/02/22 01:42:39;;;;;;;2.13;1.53;;;5.30;99.90;;;;;;4994465;28;20187;-66
2022/02/22 01:45:06;;;;;;;3.70;1.80;;;5.20;99.90;;;;;;4998109;28;20298;-66
2022/02/22 01:47:32;;;;;;;5.17;2.80;;;5.10;99.90;;;;;;4993671;28;20203;-66
2022/02/22 01:49:57;;;;;;;6.90;2.30;;;5.00;99.90;;;;;;4996363;28;20952;-66
2022/02/22 01:52:23;;;;;;;5.37;1.90;;;4.90;99.90;;;;;;4993696;28;20665;-66
2022/02/22 01:54:49;;;;;;;4.67;2.50;;;4.80;99.90;;;;;;4996327;28;20202;-66
2022/02/22 01:57:17;;;;;;;4.40;1.60;;;4.80;99.90;;;;;;5007882;28;20179;-66
2022/02/22 01:59:44;;;;;;;6.30;2.20;;;4.70;99.90;;;;;;4995702;28;20185;-66
2022/02/22 02:02:09;;;;;;;4.60;1.87;;;4.70;99.90;;;;;;4993522;28;20460;-66
2022/02/22 02:04:35;;;;;;;5.20;1.80;;;4.70;99.90;;;;;;4995984;28;20465;-66
2022/02/22 02:07:00;;;;;;;3.93;2.00;;;4.70;99.90;;;;;;4994141;28;20171;-67
2022/02/22 02:09:26;;;;;;;5.77;1.77;;;4.60;99.90;;;;;;4994485;28;20210;-67
2022/02/22 02:11:57;;;;;;;2.33;1.40;;;4.60;99.90;;;;;;4994402;28;20267;-67
2022/02/22 02:14:24;;;;;;;2.13;1.30;;;4.60;99.90;;;;;;4986478;28;20199;-67
2022/02/22 02:16:51;;;;;;;4.30;1.97;;;4.60;99.90;;;;;;5000266;28;20955;-66
2022/02/22 02:19:18;;;;;;;1.40;1.30;;;4.60;99.90;;;;;;4998180;28;20916;-67
2022/02/22 02:21:44;;;;;;;5.83;2.37;;;4.60;99.90;;;;;;5010957;28;20448;-67
2022/02/22 02:24:11;;;;;;;4.20;1.73;;;4.50;99.90;;;;;;5000611;28;20458;-67
2022/02/22 02:26:37;;;;;;;1.97;1.60;;;4.50;99.90;;;;;;4993664;28;20489;-66
2022/02/22 02:29:06;;;;;;;11.63;2.80;;;4.50;99.90;;;;;;4992803;28;20957;-67
2022/02/22 02:31:32;;;;;;;6.27;2.13;;;4.50;99.90;;;;;;4986451;28;20485;-66
2022/02/22 02:33:59;;;;;;;4.63;2.20;;;4.50;99.90;;;;;;5008969;28;20876;-67
2022/02/22 02:36:25;;;;;;;3.87;1.63;;;4.50;99.90;;;;;;5011061;28;20179;-66
2022/02/22 02:38:51;;;;;;;7.23;1.60;;;4.60;99.90;;;;;;5005583;28;20445;-67
2022/02/22 02:41:16;;;;;;;6.20;1.67;;;4.60;99.90;;;;;;4993890;28;20564;-66
2022/02/22 02:43:42;;;;;;;3.80;2.10;;;4.50;99.90;;;;;;4992585;28;20294;-67
2022/02/22 02:46:07;;;;;;;4.10;1.73;;;4.50;99.90;;;;;;4994723;28;20195;-67
2022/02/22 02:48:33;;;;;;;5.23;1.77;;;4.50;99.90;;;;;;5004853;28;20192;-66
2022/02/22 02:50:58;;;;;;;6.23;2.30;;;4.50;99.90;;;;;;4993849;28;20589;-67
2022/02/22 02:53:23;;;;;;;4.47;1.90;;;4.40;99.90;;;;;;4995000;28;20669;-67
2022/02/22 02:55:49;;;;;;;6.00;1.87;;;4.40;99.90;;;;;;5000913;28;20179;-66
2022/02/22 02:58:14;;;;;;;2.90;1.43;;;4.40;99.90;;;;;;4996435;28;20215;-66
2022/02/22 03:00:40;;;;;;;6.53;2.60;;;4.40;99.90;;;;;;5000926;28;20188;-67
2022/02/22 03:03:05;;;;;;;3.00;1.60;;;4.40;99.90;;;;;;5002974;28;20186;-67
2022/02/22 03:05:31;;;;;;;2.83;1.50;;;4.50;99.90;;;;;;4993779;28;20613;-67
2022/02/22 03:07:59;;;;;;;7.80;1.77;;;4.50;99.90;;;;;;5006569;28;20222;-67
2022/02/22 03:10:26;;;;;;;6.30;2.57;;;4.50;99.90;;;;;;5003483;28;20649;-67
2022/02/22 03:12:51;;;;;;;8.97;2.00;;;4.50;99.90;;;;;;4993201;28;20481;-67
2022/02/22 03:15:17;;;;;;;4.20;2.37;;;4.50;99.90;;;;;;4993037;28;20458;-67
2022/02/22 03:17:43;;;;;;;4.33;2.43;;;4.50;99.90;;;;;;5007375;28;20187;-67
2022/02/22 03:20:09;;;;;;;6.40;2.00;;;4.50;99.90;;;;;;5005795;28;20175;-67
2022/02/22 03:22:34;;;;;;;6.00;1.90;;;4.50;99.90;;;;;;4996285;28;20183;-67
2022/02/22 03:25:00;;;;;;;7.97;2.20;;;4.50;99.90;;;;;;4996186;28;20469;-67
2022/02/22 03:27:25;;;;;;;3.37;1.57;;;4.50;99.90;;;;;;5000481;28;20174;-66
2022/02/22 03:29:51;;;;;;;8.23;1.53;;;4.40;99.90;;;;;;4996918;28;20175;-67
2022/02/22 03:32:16;;;;;;;8.30;2.30;;;4.40;99.90;;;;;;4996613;28;20661;-66
2022/02/22 03:34:42;;;;;;;5.70;2.20;;;4.40;99.90;;;;;;4996224;28;20282;-67
2022/02/22 03:37:10;;;;;;;4.20;1.70;;;4.40;99.90;;;;;;5004175;28;20167;-67
2022/02/22 03:39:35;;;;;;;5.10;1.90;;;4.30;99.90;;;;;;4999581;28;20190;-67
2022/02/22 03:42:01;;;;;;;8.30;1.63;;;4.30;99.90;;;;;;4997089;28;20430;-67
2022/02/22 03:44:26;;;;;;;8.33;2.70;;;4.30;99.90;;;;;;4998068;28;20835;-66
2022/02/22 03:46:52;;;;;;;5.23;1.63;;;4.30;99.90;;;;;;5005539;28;20557;-67
2022/02/22 03:49:17;;;;;;;10.80;2.67;;;4.30;99.90;;;;;;5001205;28;20178;-67
2022/02/22 03:51:43;;;;;;;11.10;2.27;;;4.30;99.90;;;;;;4999385;28;20613;-67
2022/02/22 03:54:08;;;;;;;4.73;2.40;;;4.30;99.90;;;;;;4999585;28;20221;-67
2022/02/22 03:56:34;;;;;;;9.57;3.47;;;4.30;99.90;;;;;;5003926;28;20218;-67
2022/02/22 03:58:59;;;;;;;6.33;2.10;;;4.20;99.90;;;;;;5001962;28;20616;-67
2022/02/22 04:01:25;;;;;;;4.50;1.90;;;4.20;99.90;;;;;;4997343;28;20234;-66
2022/02/22 04:03:50;;;;;;;7.70;1.97;;;4.20;99.90;;;;;;4998729;28;20202;-67
2022/02/22 04:06:16;;;;;;;4.90;1.93;;;4.20;99.90;;;;;;4998835;28;20214;-67
2022/02/22 04:08:41;;;;;;;5.20;1.90;;;4.30;99.90;;;;;;5003783;28;20279;-67
2022/02/22 04:11:07;;;;;;;6.37;1.90;;;4.40;99.90;;;;;;4999026;28;20643;-67
2022/02/22 04:13:32;;;;;;;4.13;1.70;;;4.50;99.90;;;;;;4995699;28;20318;-67
2022/02/22 04:15:58;;;;;;;5.67;2.03;;;4.50;99.90;;;;;;5009433;28;20171;-67
2022/02/22 04:18:23;;;;;;;5.13;1.90;;;4.50;99.90;;;;;;4996987;28;20558;-67
2022/02/22 04:20:49;;;;;;;2.33;2.13;;;4.50;99.90;;;;;;4995342;28;20679;-67
2022/02/22 04:23:14;;;;;;;10.00;2.03;;;4.50;99.90;;;;;;5007484;28;20185;-66
2022/02/22 04:25:40;;;;;;;9.07;2.50;;;4.50;99.90;;;;;;5000956;28;20341;-67
2022/02/22 04:28:06;;;;;;;5.03;2.20;;;4.40;99.90;;;;;;4999517;28;20294;-67
2022/02/22 04:30:32;;;;;;;3.57;1.97;;;4.40;99.90;;;;;;4995276;28;20641;-67
2022/02/22 04:32:57;;;;;;;6.97;2.47;;;4.30;99.90;;;;;;4997952;28;20682;-68
2022/02/22 04:35:23;;;;;;;6.10;2.23;;;4.30;99.90;;;;;;5026058;28;20542;-68
2022/02/22 04:37:48;;;;;;;7.07;3.00;;;4.30;99.90;;;;;;4994796;28;20183;-68
2022/02/22 04:40:14;;;;;;;4.23;1.73;;;4.20;99.90;;;;;;5004060;28;20190;-67
2022/02/22 04:42:40;;;;;;;3.50;2.43;;;4.20;99.90;;;;;;4995204;28;20198;-68
2022/02/22 04:45:07;;;;;;;4.17;1.80;;;4.20;99.90;;;;;;4996068;28;20230;-68
2022/02/22 04:47:33;;;;;;;5.43;2.43;;;4.10;99.90;;;;;;4999522;28;20233;-68
2022/02/22 04:49:58;;;;;;;3.70;2.83;;;4.10;99.90;;;;;;4995444;28;20957;-67
2022/02/22 04:52:24;;;;;;;7.33;2.40;;;4.10;99.90;;;;;;4994504;28;20210;-68
2022/02/22 04:54:49;;;;;;;5.60;2.03;;;4.10;99.90;;;;;;4998627;28;20219;-68
2022/02/22 04:57:15;;;;;;;4.33;2.90;;;4.00;99.90;;;;;;4998517;28;20175;-68
2022/02/22 04:59:40;;;;;;;5.80;2.47;;;4.00;99.90;;;;;;4996482;28;20203;-68
2022/02/22 05:02:06;;;;;;;7.30;3.23;;;4.10;99.90;;;;;;4996527;28;20550;-67
2022/02/22 05:04:32;;;;;;;9.50;3.00;;;4.00;99.90;;;;;;5000098;28;20597;-68
2022/02/22 05:06:57;;;;;;;5.90;2.57;;;4.00;99.90;;;;;;4998885;28;20211;-68
2022/02/22 05:09:23;;;;;;;4.00;2.50;;;4.00;99.90;;;;;;4996911;28;20190;-67
2022/02/22 05:11:48;;;;;;;3.87;2.70;;;4.00;99.90;;;;;;4994419;28;20180;-67
2022/02/22 05:14:14;;;;;;;5.83;2.47;;;4.00;99.90;;;;;;4995680;28;20230;-68
2022/02/22 05:16:40;;;;;;;4.80;3.00;;;3.90;99.90;;;;;;4994044;28;20183;-68
2022/02/22 05:19:07;;;;;;;7.27;2.77;;;3.90;99.90;;;;;;4993955;28;20361;-67
2022/02/22 05:21:34;;;;;;;7.03;3.10;;;3.90;99.90;;;;;;5000512;28;20812;-68
2022/02/22 05:24:00;;;;;;;8.40;2.53;;;3.90;99.90;;;;;;4993915;28;20466;-68
2022/02/22 05:26:25;;;;;;;5.37;2.37;;;3.90;99.90;;;;;;5000877;28;20481;-68
2022/02/22 05:28:51;;;;;;;5.13;2.47;;;3.90;99.90;;;;;;4994334;28;20207;-68
2022/02/22 05:31:18;;;;;;;5.60;2.50;;;3.80;99.90;;;;;;4996859;28;20186;-68
2022/02/22 05:33:45;;;;;;;7.17;2.87;;;3.80;99.90;;;;;;4995272;28;20202;-68
2022/02/22 05:36:10;;;;;;;4.87;2.60;;;3.80;99.90;;;;;;4993054;28;20500;-68
2022/02/22 05:38:36;;;;;;;6.03;2.77;;;3.80;99.90;;;;;;4997372;28;20450;-68
2022/02/22 05:41:02;;;;;;;2.87;2.20;;;3.80;99.90;;;;;;4993734;28;20303;-68
2022/02/22 05:43:27;;;;;;;9.17;3.03;;;3.80;99.90;;;;;;5008787;28;20735;-68
2022/02/22 05:45:55;;;;;;;8.60;3.27;;;3.70;99.90;;;;;;4993239;28;20470;-68
2022/02/22 05:48:21;;;;;;;4.73;2.30;;;3.70;99.90;;;;;;4993437;28;20249;-67
2022/02/22 05:50:46;;;;;;;9.77;2.97;;;3.70;99.90;;;;;;4993301;28;20833;-68
2022/02/22 05:53:12;;;;;;;4.20;2.80;;;3.70;99.90;;;;;;4993681;28;20439;-68
2022/02/22 05:55:38;;;;;;;10.50;2.83;;;3.60;99.90;;;;;;4993250;28;20183;-68
2022/02/22 05:58:04;;;;;;;4.97;2.70;;;3.60;99.90;;;;;;4993754;28;20183;-68
2022/02/22 06:00:30;;;;;;;5.43;3.23;;;3.60;99.90;;;;;;4992844;28;20522;-68
2022/02/22 06:02:55;;;;;;;3.97;2.37;;;3.60;99.90;;;;;;4993539;28;20439;-67
2022/02/22 06:05:21;;;;;;;5.17;2.53;;;3.60;99.90;;;;;;4992962;28;20694;-68
2022/02/22 06:07:46;;;;;;;9.43;3.00;;;3.50;99.90;;;;;;4993366;28;20183;-68
2022/02/22 06:10:15;;;;;;;2.90;2.30;;;3.50;99.90;;;;;;4993858;28;20175;-68
2022/02/22 06:12:45;;;;;;;8.60;2.37;;;3.50;99.90;;;;;;4997691;28;20183;-67
2022/02/22 06:15:11;;;;;;;10.00;2.87;;;3.40;99.90;;;;;;4992767;28;20470;-68
2022/02/22 06:17:41;;;;;;;9.93;5.50;;;3.40;99.90;;;;;;4993173;28;20790;-68
2022/02/22 06:20:08;;;;;;;8.30;2.80;;;3.40;99.90;;;;;;4992860;28;20500;-68
2022/02/22 06:22:34;;;;;;;6.93;2.70;;;3.40;99.90;;;;;;4992774;28;20446;-68
2022/02/22 06:25:01;;;;;;;11.00;3.17;;;3.40;99.90;;;;;;4992755;28;20463;-68
2022/02/22 06:27:26;;;;;;;10.33;2.53;;;3.40;99.90;;;;;;4992594;28;20431;-68
2022/02/22 06:29:52;;;;;;;5.53;2.87;;;3.40;99.90;;;;;;4991281;28;20467;-68
2022/02/22 06:32:17;;;;;;;9.43;3.23;;;3.40;99.90;;;;;;4992645;28;20587;-68
2022/02/22 06:34:43;;;;;;;9.03;3.60;;;3.40;99.90;;;;;;4992844;28;20187;-68
2022/02/22 06:37:08;;;;;;;5.87;2.90;;;3.50;99.90;;;;;;4992299;28;20175;-68
2022/02/22 06:39:35;;;;;;;8.30;3.10;;;3.50;99.90;;;;;;4992701;28;20175;-68
2022/02/22 06:42:01;;;;;;;7.60;3.03;;;3.50;99.90;;;;;;4992824;28;20187;-68
2022/02/22 06:44:26;;;;;;;8.43;2.73;;;3.40;99.90;;;;;;4992373;28;20451;-67
2022/02/22 06:46:52;;;;;;;5.17;3.40;;;3.50;99.90;;;;;;4992149;28;20199;-67
2022/02/22 06:49:17;;;;;;;5.63;4.43;;;3.50;99.90;;;;;;4992239;28;20175;-67
2022/02/22 06:51:43;;;;;;;6.50;2.63;;;3.50;99.90;;;;;;4992548;28;20179;-68
2022/02/22 06:54:08;;;;;;;9.03;2.90;;;3.50;99.90;;;;;;4992611;28;20199;-67
2022/02/22 06:56:34;;;;;;;4.63;2.57;;;3.50;99.90;;;;;;5002892;28;20269;-68
2022/02/22 06:58:59;;;;;;;3.50;2.93;;;3.50;99.90;;;;;;4995200;28;20215;-68
2022/02/22 07:01:25;;;;;;;5.10;3.20;;;3.50;99.90;;;;;;4991647;28;20599;-68
2022/02/22 07:03:50;;;;;;;9.80;2.93;;;3.60;99.90;;;;;;4991595;28;20195;-68
2022/02/22 07:06:16;;;;;;;8.23;4.10;;;3.80;99.90;;;;;;4991540;28;20626;-68
2022/02/22 07:08:41;;;;;;;7.23;3.10;;;4.10;99.90;;;;;;4992516;28;20194;-68
2022/02/22 07:11:07;;;;;;;7.30;3.27;;;4.40;99.90;;;;;;4994291;28;20190;-68
2022/02/22 07:13:32;;;;;;;6.00;3.13;;;4.70;99.90;;;;;;4969598;28;20788;-68
2022/02/22 07:15:58;;;;;;;10.67;4.07;;;5.00;99.90;;;;;;4974356;28;20187;-68
2022/02/22 07:18:23;;;;;;;4.87;3.20;;;5.30;99.90;;;;;;4994767;28;20191;-68
2022/02/22 07:20:49;;;;;;;8.10;3.27;;;5.60;99.90;;;;;;4994272;28;20183;-67
2022/02/22 07:23:14;;;;;;;9.73;2.80;;;5.80;99.90;;;;;;4995137;28;20602;-68
2022/02/22 07:25:40;;;;;;;5.90;3.20;;;6.10;99.90;;;;;;4991915;28;20184;-68
2022/02/22 07:28:05;;;;;;;5.33;3.10;;;6.20;99.90;;;;;;4992008;28;20230;-67
2022/02/22 07:30:31;;;;;;;6.83;3.47;;;6.30;99.90;;;;;;4992242;28;20732;-68
2022/02/22 07:32:59;;;;;;;5.93;3.10;;;6.30;99.90;;;;;;4992900;28;20180;-68
2022/02/22 07:35:25;;;;;;;7.80;4.10;;;6.30;99.90;;;;;;4991009;28;20192;-68
2022/02/22 07:37:50;;;;;;;6.90;4.10;;;6.20;99.90;;;;;;4999794;28;21008;-67
2022/02/22 07:40:17;;;;;;;6.67;3.87;;;6.10;99.90;;;;;;4991256;28;20470;-67
2022/02/22 07:42:44;;;;;;;9.67;3.53;;;5.90;99.90;;;;;;4992676;28;20202;-67
2022/02/22 07:45:11;;;;;;;7.10;3.47;;;5.80;99.90;;;;;;4991246;28;20477;-67
2022/02/22 07:47:37;;;;;;;10.70;3.40;;;5.70;99.90;;;;;;4995709;28;20451;-67
2022/02/22 07:50:04;;;;;;;5.33;2.70;;;5.90;99.90;;;;;;4997767;28;20815;-68
2022/02/22 07:52:31;;;;;;;7.07;2.43;;;6.10;99.90;;;;;;4994750;28;20305;-67
2022/02/22 07:54:57;;;;;;;4.57;2.67;;;6.10;99.90;;;;;;5011638;28;20513;-67
2022/02/22 07:57:23;;;;;;;6.53;2.70;;;6.10;99.90;;;;;;4992425;28;20573;-67
2022/02/22 07:59:49;;;;;;;9.40;3.37;;;6.40;99.90;;;;;;4992463;28;20431;-68
2022/02/22 08:02:15;;;;;;;7.53;3.20;;;6.60;99.90;;;;;;4991930;28;20445;-68
2022/02/22 08:04:41;;;;;;;9.63;3.63;;;6.70;99.90;;;;;;4995971;28;20537;-68
2022/02/22 08:07:08;;;;;;;8.53;3.17;;;6.70;99.90;;;;;;4998620;28;20214;-67
2022/02/22 08:09:33;;;;;;;4.10;2.13;;;6.80;99.90;;;;;;4991476;28;20626;-67
2022/02/22 08:11:59;;;;;;;6.40;2.90;;;7.30;99.90;;;;;;4992292;28;20501;-67
2022/02/22 08:14:25;;;;;;;6.20;2.20;;;7.50;99.90;;;;;;4995736;28;20642;-67
2022/02/22 08:16:57;;;;;;;7.23;2.80;;;7.80;99.90;;;;;;4995302;28;20187;-67
2022/02/22 08:19:22;;;;;;;4.60;3.20;;;7.80;99.90;;;;;;4994925;28;20592;-67
2022/02/22 08:21:48;;;;;;;11.03;2.77;;;7.90;99.90;;;;;;5006401;28;20529;-66
2022/02/22 08:24:13;;;;;;;4.87;2.97;;;7.80;99.90;;;;;;4998741;28;20207;-66
2022/02/22 08:26:39;;;;;;;7.90;2.90;;;8.40;99.90;;;;;;4994636;28;20697;-66
2022/02/22 08:29:04;;;;;;;5.03;2.10;;;8.70;99.90;;;;;;4994625;28;20186;-66
2022/02/22 08:31:30;;;;;;;6.23;2.27;;;8.30;99.90;;;;;;4995678;28;20200;-66
2022/02/22 08:33:58;;;;;;;6.13;3.90;;;8.10;99.90;;;;;;4994059;28;20211;-66
2022/02/22 08:36:26;;;;;;;7.37;2.90;;;7.90;99.90;;;;;;4999127;28;20195;-66
2022/02/22 08:38:53;;;;;;;7.20;2.80;;;7.80;99.90;;;;;;4994457;28;20533;-67
2022/02/22 08:41:19;;;;;;;6.07;2.23;;;7.60;99.90;;;;;;4997360;28;20569;-66
2022/02/22 08:43:44;;;;;;;7.17;2.20;;;7.50;99.90;;;;;;4994099;28;20542;-66
2022/02/22 08:46:10;;;;;;;8.47;2.73;;;7.40;99.90;;;;;;4993679;28;20539;-66
2022/02/22 08:48:35;;;;;;;8.10;2.43;;;7.40;99.90;;;;;;4994559;28;20184;-66
2022/02/22 08:51:01;;;;;;;6.97;2.60;;;7.40;99.90;;;;;;5003092;28;20747;-66
2022/02/22 08:53:26;;;;;;;6.10;2.60;;;7.30;99.90;;;;;;4996014;28;20187;-66
2022/02/22 08:55:52;;;;;;;8.27;2.63;;;7.20;99.90;;;;;;5001571;28;20179;-66
2022/02/22 08:58:17;;;;;;;4.80;2.13;;;7.20;99.90;;;;;;4993794;28;20190;-67
2022/02/22 09:00:43;;;;;;;6.60;1.97;;;7.30;99.90;;;;;;4993958;28;20180;-66
2022/02/22 09:03:08;;;;;;;4.23;2.30;;;7.40;99.90;;;;;;4994867;28;20180;-67
2022/02/22 09:05:36;;;;;;;6.00;2.20;;;7.20;99.90;;;;;;4993608;28;20200;-66
2022/02/22 09:08:01;;;;;;;4.57;2.80;;;7.20;99.90;;;;;;5002271;28;20167;-66
2022/02/22 09:10:27;;;;;;;10.13;2.63;;;7.20;99.90;;;;;;5001341;28;20434;-66
2022/02/22 09:12:53;;;;;;;6.00;2.47;;;7.10;99.90;;;;;;4999100;28;20172;-66
2022/02/22 09:15:21;;;;;;;7.53;2.33;;;7.20;99.90;;;;;;4997050;28;20482;-66
2022/02/22 09:17:48;;;;;;;7.57;2.40;;;7.20;99.90;;;;;;4994066;28;20781;-66
2022/02/22 09:20:17;;;;;;;3.70;2.17;;;7.20;99.90;;;;;;4994262;28;20509;-66
2022/02/22 09:22:42;;;;;;;7.33;2.70;;;7.20;99.90;;;;;;4993870;28;20858;-66
2022/02/22 09:25:10;;;;;;;11.27;2.57;;;7.20;99.90;;;;;;4991737;28;20498;-67
2022/02/22 09:27:38;;;;;;;5.03;2.30;;;7.20;99.90;;;;;;4994950;28;20186;-67
2022/02/22 09:30:04;;;;;;;7.40;1.73;;;7.40;99.90;;;;;;4993665;28;20427;-67
2022/02/22 09:32:30;;;;;;;8.27;2.20;;;7.50;99.90;;;;;;4993758;28;20434;-66
2022/02/22 09:34:56;;;;;;;5.70;2.10;;;7.50;99.90;;;;;;4992475;28;20549;-66
2022/02/22 09:37:21;;;;;;;8.20;2.13;;;7.60;99.90;;;;;;4993989;28;20179;-66
2022/02/22 09:39:47;;;;;;;7.77;2.00;;;7.60;99.90;;;;;;4993201;28;20175;-67
2022/02/22 09:42:12;;;;;;;9.73;2.57;;;7.60;99.90;;;;;;4993189;28;20183;-67
2022/02/22 09:44:39;;;;;;;4.07;2.20;;;7.60;99.90;;;;;;4994465;28;20688;-67
2022/02/22 09:47:07;;;;;;;8.20;3.20;;;7.70;99.90;;;;;;4992342;28;20732;-67
2022/02/22 09:49:33;;;;;;;12.67;4.53;;;7.80;99.90;;;;;;4992906;28;20550;-67
2022/02/22 09:51:59;;;;;;;9.70;2.80;;;8.00;99.90;;;;;;4991459;28;20431;-67
2022/02/22 09:54:25;;;;;;;7.30;2.30;;;8.00;99.90;;;;;;4994502;28;20824;-68
2022/02/22 09:56:51;;;;;;;6.30;1.93;;;7.90;99.90;;;;;;4992562;28;20257;-67
2022/02/22 09:59:18;;;;;;;5.93;1.87;;;7.90;99.90;;;;;;4993484;28;20443;-67
2022/02/22 10:01:49;;;;;;;7.80;2.10;;;7.90;99.90;;;;;;4992746;28;20815;-66
2022/02/22 10:04:15;;;;;;;7.57;2.17;;;7.80;99.90;;;;;;4992502;28;20894;-65
2022/02/22 10:06:41;;;;;;;7.37;1.87;;;7.90;99.90;;;;;;4996539;28;20497;-66
2022/02/22 10:09:09;;;;;;;5.70;2.10;;;7.80;99.90;;;;;;4993807;28;20641;-66
2022/02/22 10:11:50;;;;;;;9.13;2.50;;;7.80;99.90;;;;;;4995596;28;20602;-66
2022/02/22 10:14:26;;;;;;;5.03;2.70;;;7.80;99.90;;;;;;4992163;28;20995;-65
2022/02/22 10:16:54;;;;;;;4.73;2.37;;;7.90;99.90;;;;;;4992590;28;20481;-66
2022/02/22 10:19:21;;;;;;;7.37;2.40;;;8.10;99.90;;;;;;4992709;28;20861;-66
2022/02/22 10:21:50;;;;;;;6.07;2.47;;;8.10;99.90;;;;;;4997981;28;20446;-66
2022/02/22 10:24:18;;;;;;;6.20;2.70;;;8.20;99.90;;;;;;4999514;28;20496;-66
2022/02/22 10:26:44;;;;;;;6.97;2.73;;;8.30;99.90;;;;;;4992135;28;20506;-66
2022/02/22 10:29:21;;;;;;;6.63;2.63;;;8.20;99.90;;;;;;4992694;28;20478;-66
2022/02/22 10:31:48;;;;;;;7.90;4.73;;;8.30;99.90;;;;;;5001885;28;20425;-66
2022/02/22 10:34:14;;;;;;;3.30;2.03;;;8.30;99.90;;;;;;4992595;28;20446;-65
2022/02/22 10:36:42;;;;;;;10.03;3.10;;;8.50;99.90;;;;;;4995269;28;20439;-65
2022/02/22 10:39:12;;;;;;;6.57;2.93;;;8.40;99.90;;;;;;4992105;28;20439;-65
2022/02/22 10:41:42;;;;;;;9.40;2.50;;;8.30;99.90;;;;;;4994700;28;20443;-65
2022/02/22 10:44:10;;;;;;;9.00;2.60;;;8.40;99.90;;;;;;4992220;28;20545;-65
2022/02/22 10:46:40;;;;;;;10.87;3.00;;;8.60;99.90;;;;;;4992214;28;20466;-65
2022/02/22 10:49:13;;;;;;;7.33;3.40;;;9.00;99.90;;;;;;4988267;28;20439;-66
2022/02/22 10:51:43;;;;;;;7.20;3.07;;;9.60;99.90;;;;;;4994157;28;20831;-65
2022/02/22 10:54:15;;;;;;;7.80;4.37;;;10.10;99.90;;;;;;4994773;28;20529;-65
2022/02/22 10:56:41;;;;;;;8.13;3.17;;;9.90;99.90;;;;;;4999469;28;20438;-66
2022/02/22 10:59:06;;;;;;;4.13;2.40;;;9.40;99.90;;;;;;4994055;28;20986;-65
2022/02/22 11:01:32;;;;;;;7.10;3.00;;;9.00;99.90;;;;;;4994825;28;20171;-65
2022/02/22 11:03:58;;;;;;;5.80;2.13;;;8.70;99.90;;;;;;4992526;28;20195;-66
2022/02/22 11:06:25;;;;;;;4.20;2.27;;;8.70;99.90;;;;;;4992290;28;20210;-65
2022/02/22 11:08:53;;;;;;;7.47;2.60;;;8.70;99.90;;;;;;4995235;28;20176;-65
2022/02/22 11:11:41;;;;;;;10.33;2.43;;;8.60;99.90;;;;;;4991557;28;20457;-65
2022/02/22 11:14:08;;;;;;;9.63;3.37;;;8.60;99.90;;;;;;4993196;28;20457;-65
2022/02/22 11:16:40;;;;;;;6.77;2.60;;;8.70;99.90;;;;;;4992770;28;20565;-65
2022/02/22 11:19:35;;;;;;;7.00;2.27;;;8.70;99.90;;;;;;4991329;28;20442;-65
2022/02/22 11:22:12;;;;;;;6.80;3.00;;;8.80;99.90;;;;;;4991434;28;20451;-67
2022/02/22 11:24:57;;;;;;;6.63;3.07;;;8.70;99.90;;;;;;4991309;28;20462;-65
2022/02/22 11:27:30;;;;;;;9.37;3.17;;;8.70;99.90;;;;;;4994425;28;20449;-64
2022/02/22 11:29:56;;;;;;;13.33;2.90;;;8.80;99.90;;;;;;5007881;28;20443;-65
2022/02/22 11:32:23;;;;;;;4.67;2.70;;;8.80;99.90;;;;;;4993086;28;21015;-65
2022/02/22 11:34:49;;;;;;;7.87;3.13;;;8.80;99.90;;;;;;4991923;28;20454;-64
2022/02/22 11:37:17;;;;;;;7.77;3.77;;;8.70;99.90;;;;;;4991579;28;20446;-64
2022/02/22 11:39:51;;;;;;;4.90;2.60;;;8.70;99.90;;;;;;4992941;28;20575;-66
2022/02/22 11:42:23;;;;;;;6.57;2.50;;;8.70;99.90;;;;;;4983299;28;20438;-67
2022/02/22 11:45:11;;;;;;;5.77;3.50;;;8.80;99.90;;;;;;4996930;28;20602;-67
2022/02/22 11:47:39;;;;;;;6.23;3.13;;;9.10;99.90;;;;;;4993748;28;20439;-67
2022/02/22 11:50:18;;;;;;;5.70;2.73;;;9.20;99.90;;;;;;4995077;28;20779;-67
2022/02/22 11:52:51;;;;;;;6.13;3.20;;;9.30;99.90;;;;;;4999063;28;20423;-67
2022/02/22 11:55:19;;;;;;;7.37;2.80;;;9.20;99.90;;;;;;4992473;28;20581;-67
2022/02/22 11:57:48;;;;;;;9.53;3.70;;;9.10;99.90;;;;;;4993350;28;20435;-67
2022/02/22 12:00:16;;;;;;;7.47;2.60;;;9.50;99.90;;;;;;4987765;28;20570;-68
2022/02/22 12:02:42;;;;;;;9.13;2.70;;;9.70;99.90;;;;;;4988956;28;20446;-67
2022/02/22 12:05:28;;;;;;;8.90;3.23;;;9.50;99.90;;;;;;4988412;28;21695;-68
2022/02/22 12:08:01;;;;;;;6.10;2.73;;;9.50;99.90;;;;;;4989375;28;20434;-68
2022/02/22 12:10:30;;;;;;;9.13;3.23;;;9.40;99.90;;;;;;4991889;28;20438;-68
2022/02/22 12:13:09;;;;;;;12.60;2.80;;;9.70;99.90;;;;;;4988176;28;20447;-66
2022/02/22 12:15:36;;;;;;;10.10;2.57;;;9.70;99.90;;;;;;4988779;28;20441;-65
2022/02/22 12:18:02;;;;;;;10.53;2.67;;;9.50;99.90;;;;;;4990128;28;20438;-67
2022/02/22 12:20:28;;;;;;;7.10;2.93;;;9.60;99.90;;;;;;4990365;28;20442;-65
2022/02/22 12:22:54;;;;;;;6.40;2.87;;;9.60;99.90;;;;;;4988406;28;20812;-64
2022/02/22 12:25:24;;;;;;;5.27;2.50;;;9.60;99.90;;;;;;4988205;28;20466;-66
2022/02/22 12:27:59;;;;;;;8.13;3.03;;;10.30;99.90;;;;;;5021649;28;20175;-67
2022/02/22 12:30:32;;;;;;;7.50;2.70;;;11.20;99.90;;;;;;4992643;28;20441;-66
2022/02/22 12:32:58;;;;;;;12.90;4.77;;;11.50;99.90;;;;;;4988009;28;20450;-67
2022/02/22 12:35:50;;;;;;;14.37;3.93;;;11.40;99.90;;;;;;4989251;28;20462;-67
2022/02/22 12:38:23;;;;;;;7.33;2.47;;;11.40;99.90;;;;;;4988318;28;20199;-66
2022/02/22 12:40:50;;;;;;;9.33;2.80;;;11.40;99.90;;;;;;4990005;28;20526;-66
2022/02/22 12:43:16;;;;;;;6.70;3.40;;;11.50;99.90;;;;;;4986903;28;20956;-66
2022/02/22 12:45:49;;;;;;;5.67;3.07;;;11.10;99.90;;;;;;4990314;28;20875;-66
2022/02/22 12:48:16;;;;;;;8.40;3.00;;;10.90;99.90;;;;;;4989287;28;20526;-66
2022/02/22 12:50:43;;;;;;;9.00;3.50;;;10.70;99.90;;;;;;4989816;28;20446;-66
2022/02/22 12:53:08;;;;;;;7.13;2.87;;;10.60;99.90;;;;;;4990533;28;20446;-67